sensor_id;sensor_type;location;lat;lon;timestamp;P1;durP1;ratioP1;P2;durP2;ratioP2
4053;SDS011;2042;47.956;9.222;2023-09-18T00:00:46;5.33;;;3.90;;
4053;SDS011;2042;47.956;9.222;2023-09-18T00:03:15;3.77;;;3.33;;
4053;SDS011;2042;47.956;9.222;2023-09-18T00:05:48;3.77;;;3.37;;
4053;SDS011;2042;47.956;9.222;2023-09-18T00:08:15;5.67;;;4.00;;
4053;SDS011;2042;47.956;9.222;2023-09-18T00:10:42;4.17;;;3.60;;
4053;SDS011;2042;47.956;9.222;2023-09-18T00:13:11;4.60;;;3.80;;
4053;SDS011;2042;47.956;9.222;2023-09-18T00:15:37;5.67;;;4.37;;
4053;SDS011;2042;47.956;9.222;2023-09-18T00:18:03;5.83;;;4.17;;
4053;SDS011;2042;47.956;9.222;2023-09-18T00:20:29;4.87;;;4.30;;
4053;SDS011;2042;47.956;9.222;2023-09-18T00:22:55;5.30;;;4.23;;
4053;SDS011;2042;47.956;9.222;2023-09-18T00:25:21;5.50;;;3.67;;
4053;SDS011;2042;47.956;9.222;2023-09-18T00:27:47;6.70;;;3.97;;
4053;SDS011;2042;47.956;9.222;2023-09-18T00:30:13;7.30;;;4.40;;
4053;SDS011;2042;47.956;9.222;2023-09-18T00:32:39;4.23;;;3.50;;
4053;SDS011;2042;47.956;9.222;2023-09-18T00:35:05;4.60;;;4.00;;
4053;SDS011;2042;47.956;9.222;2023-09-18T00:37:31;4.90;;;3.87;;
4053;SDS011;2042;47.956;9.222;2023-09-18T00:39:58;4.30;;;3.90;;
4053;SDS011;2042;47.956;9.222;2023-09-18T00:42:24;4.80;;;3.87;;
4053;SDS011;2042;47.956;9.222;2023-09-18T00:44:49;3.87;;;3.43;;
4053;SDS011;2042;47.956;9.222;2023-09-18T00:47:18;6.40;;;4.13;;
4053;SDS011;2042;47.956;9.222;2023-09-18T00:49:45;6.17;;;3.70;;
4053;SDS011;2042;47.956;9.222;2023-09-18T00:52:14;8.00;;;4.30;;
4053;SDS011;2042;47.956;9.222;2023-09-18T00:54:41;6.70;;;4.80;;
4053;SDS011;2042;47.956;9.222;2023-09-18T00:57:08;8.87;;;5.47;;
4053;SDS011;2042;47.956;9.222;2023-09-18T00:59:35;8.47;;;5.40;;
4053;SDS011;2042;47.956;9.222;2023-09-18T01:02:02;7.13;;;5.20;;
4053;SDS011;2042;47.956;9.222;2023-09-18T01:04:28;5.00;;;4.33;;
4053;SDS011;2042;47.956;9.222;2023-09-18T01:06:57;10.00;;;4.47;;
4053;SDS011;2042;47.956;9.222;2023-09-18T01:09:24;7.00;;;5.63;;
4053;SDS011;2042;47.956;9.222;2023-09-18T01:12:05;6.23;;;4.50;;
4053;SDS011;2042;47.956;9.222;2023-09-18T01:17:37;12.30;;;5.00;;
4053;SDS011;2042;47.956;9.222;2023-09-18T01:20:08;5.13;;;4.37;;
4053;SDS011;2042;47.956;9.222;2023-09-18T01:22:34;5.80;;;4.73;;
4053;SDS011;2042;47.956;9.222;2023-09-18T01:25:00;6.50;;;5.03;;
4053;SDS011;2042;47.956;9.222;2023-09-18T01:27:26;6.03;;;4.53;;
4053;SDS011;2042;47.956;9.222;2023-09-18T01:29:51;7.10;;;4.97;;
4053;SDS011;2042;47.956;9.222;2023-09-18T01:32:18;6.80;;;5.33;;
4053;SDS011;2042;47.956;9.222;2023-09-18T01:34:51;10.47;;;6.23;;
4053;SDS011;2042;47.956;9.222;2023-09-18T01:37:21;6.57;;;5.27;;
4053;SDS011;2042;47.956;9.222;2023-09-18T01:39:50;12.40;;;5.27;;
4053;SDS011;2042;47.956;9.222;2023-09-18T01:42:17;5.90;;;4.73;;
4053;SDS011;2042;47.956;9.222;2023-09-18T01:44:43;5.37;;;4.43;;
4053;SDS011;2042;47.956;9.222;2023-09-18T01:47:11;5.30;;;4.77;;
4053;SDS011;2042;47.956;9.222;2023-09-18T01:49:39;7.03;;;4.40;;
4053;SDS011;2042;47.956;9.222;2023-09-18T01:52:06;4.57;;;3.90;;
4053;SDS011;2042;47.956;9.222;2023-09-18T01:54:33;5.80;;;4.57;;
4053;SDS011;2042;47.956;9.222;2023-09-18T01:57:00;5.40;;;4.90;;
4053;SDS011;2042;47.956;9.222;2023-09-18T01:59:25;8.13;;;4.90;;
4053;SDS011;2042;47.956;9.222;2023-09-18T02:01:52;6.93;;;4.80;;
4053;SDS011;2042;47.956;9.222;2023-09-18T02:04:19;7.17;;;4.77;;
4053;SDS011;2042;47.956;9.222;2023-09-18T02:06:45;5.80;;;4.43;;
4053;SDS011;2042;47.956;9.222;2023-09-18T02:09:12;17.43;;;5.40;;
4053;SDS011;2042;47.956;9.222;2023-09-18T02:11:38;5.80;;;4.47;;
4053;SDS011;2042;47.956;9.222;2023-09-18T02:14:05;9.83;;;5.50;;
4053;SDS011;2042;47.956;9.222;2023-09-18T02:16:32;9.20;;;4.80;;
4053;SDS011;2042;47.956;9.222;2023-09-18T02:18:58;7.70;;;5.40;;
4053;SDS011;2042;47.956;9.222;2023-09-18T02:21:24;6.83;;;5.20;;
4053;SDS011;2042;47.956;9.222;2023-09-18T02:23:50;7.27;;;5.10;;
4053;SDS011;2042;47.956;9.222;2023-09-18T02:26:17;14.13;;;5.87;;
4053;SDS011;2042;47.956;9.222;2023-09-18T02:28:43;7.83;;;6.07;;
4053;SDS011;2042;47.956;9.222;2023-09-18T02:31:09;7.53;;;5.30;;
4053;SDS011;2042;47.956;9.222;2023-09-18T02:33:35;7.50;;;5.47;;
4053;SDS011;2042;47.956;9.222;2023-09-18T02:36:01;9.87;;;5.27;;
4053;SDS011;2042;47.956;9.222;2023-09-18T02:38:27;6.50;;;4.77;;
4053;SDS011;2042;47.956;9.222;2023-09-18T02:40:55;9.30;;;5.50;;
4053;SDS011;2042;47.956;9.222;2023-09-18T02:43:21;8.60;;;6.00;;
4053;SDS011;2042;47.956;9.222;2023-09-18T02:45:47;7.23;;;5.90;;
4053;SDS011;2042;47.956;9.222;2023-09-18T02:48:13;5.90;;;4.77;;
4053;SDS011;2042;47.956;9.222;2023-09-18T02:50:39;8.00;;;5.77;;
4053;SDS011;2042;47.956;9.222;2023-09-18T02:53:05;8.60;;;6.47;;
4053;SDS011;2042;47.956;9.222;2023-09-18T02:55:33;5.97;;;5.37;;
4053;SDS011;2042;47.956;9.222;2023-09-18T02:58:00;7.03;;;5.20;;
4053;SDS011;2042;47.956;9.222;2023-09-18T03:00:25;6.73;;;5.17;;
4053;SDS011;2042;47.956;9.222;2023-09-18T03:02:51;5.97;;;5.37;;
4053;SDS011;2042;47.956;9.222;2023-09-18T03:05:17;7.83;;;5.40;;
4053;SDS011;2042;47.956;9.222;2023-09-18T03:07:42;9.67;;;5.40;;
4053;SDS011;2042;47.956;9.222;2023-09-18T03:10:09;6.60;;;4.67;;
4053;SDS011;2042;47.956;9.222;2023-09-18T03:12:40;6.47;;;4.30;;
4053;SDS011;2042;47.956;9.222;2023-09-18T03:15:06;7.43;;;4.53;;
4053;SDS011;2042;47.956;9.222;2023-09-18T03:17:32;5.77;;;4.10;;
4053;SDS011;2042;47.956;9.222;2023-09-18T03:19:58;8.20;;;5.50;;
4053;SDS011;2042;47.956;9.222;2023-09-18T03:22:24;6.13;;;4.53;;
4053;SDS011;2042;47.956;9.222;2023-09-18T03:24:49;13.83;;;5.80;;
4053;SDS011;2042;47.956;9.222;2023-09-18T03:27:15;6.63;;;4.77;;
4053;SDS011;2042;47.956;9.222;2023-09-18T03:29:40;5.10;;;4.50;;
4053;SDS011;2042;47.956;9.222;2023-09-18T03:32:06;5.43;;;4.83;;
4053;SDS011;2042;47.956;9.222;2023-09-18T03:34:31;6.97;;;5.80;;
4053;SDS011;2042;47.956;9.222;2023-09-18T03:36:57;8.20;;;4.70;;
4053;SDS011;2042;47.956;9.222;2023-09-18T03:39:23;6.40;;;4.80;;
4053;SDS011;2042;47.956;9.222;2023-09-18T03:41:48;9.37;;;5.70;;
4053;SDS011;2042;47.956;9.222;2023-09-18T03:44:14;7.00;;;5.20;;
4053;SDS011;2042;47.956;9.222;2023-09-18T03:46:41;6.23;;;5.33;;
4053;SDS011;2042;47.956;9.222;2023-09-18T03:49:06;8.40;;;5.00;;
4053;SDS011;2042;47.956;9.222;2023-09-18T03:51:32;5.17;;;4.37;;
4053;SDS011;2042;47.956;9.222;2023-09-18T03:53:58;5.40;;;4.23;;
4053;SDS011;2042;47.956;9.222;2023-09-18T03:56:24;9.83;;;5.63;;
4053;SDS011;2042;47.956;9.222;2023-09-18T03:58:50;6.30;;;4.40;;
4053;SDS011;2042;47.956;9.222;2023-09-18T04:01:16;5.47;;;4.43;;
4053;SDS011;2042;47.956;9.222;2023-09-18T04:03:42;6.13;;;5.30;;
4053;SDS011;2042;47.956;9.222;2023-09-18T04:06:07;7.60;;;4.63;;
4053;SDS011;2042;47.956;9.222;2023-09-18T04:08:33;10.73;;;5.23;;
4053;SDS011;2042;47.956;9.222;2023-09-18T04:10:58;12.93;;;5.17;;
4053;SDS011;2042;47.956;9.222;2023-09-18T04:13:24;14.60;;;5.70;;
4053;SDS011;2042;47.956;9.222;2023-09-18T04:15:50;8.70;;;5.63;;
4053;SDS011;2042;47.956;9.222;2023-09-18T04:18:21;22.37;;;6.43;;
4053;SDS011;2042;47.956;9.222;2023-09-18T04:20:47;15.53;;;7.17;;
4053;SDS011;2042;47.956;9.222;2023-09-18T04:23:19;22.50;;;6.80;;
4053;SDS011;2042;47.956;9.222;2023-09-18T04:25:47;13.97;;;5.73;;
4053;SDS011;2042;47.956;9.222;2023-09-18T04:28:14;8.27;;;5.60;;
4053;SDS011;2042;47.956;9.222;2023-09-18T04:30:40;9.17;;;5.70;;
4053;SDS011;2042;47.956;9.222;2023-09-18T04:33:06;7.70;;;5.40;;
4053;SDS011;2042;47.956;9.222;2023-09-18T04:35:32;12.43;;;5.33;;
4053;SDS011;2042;47.956;9.222;2023-09-18T04:37:58;9.60;;;4.77;;
4053;SDS011;2042;47.956;9.222;2023-09-18T04:40:25;10.77;;;5.40;;
4053;SDS011;2042;47.956;9.222;2023-09-18T04:42:51;7.83;;;6.43;;
4053;SDS011;2042;47.956;9.222;2023-09-18T04:45:17;4.43;;;4.00;;
4053;SDS011;2042;47.956;9.222;2023-09-18T04:47:43;6.60;;;5.27;;
4053;SDS011;2042;47.956;9.222;2023-09-18T04:50:09;6.97;;;5.20;;
4053;SDS011;2042;47.956;9.222;2023-09-18T04:52:35;6.90;;;4.97;;
4053;SDS011;2042;47.956;9.222;2023-09-18T04:55:01;5.10;;;4.60;;
4053;SDS011;2042;47.956;9.222;2023-09-18T04:57:26;10.50;;;4.73;;
4053;SDS011;2042;47.956;9.222;2023-09-18T04:59:52;7.97;;;5.73;;
4053;SDS011;2042;47.956;9.222;2023-09-18T05:02:18;12.43;;;5.80;;
4053;SDS011;2042;47.956;9.222;2023-09-18T05:04:44;8.43;;;5.47;;
4053;SDS011;2042;47.956;9.222;2023-09-18T05:07:10;10.07;;;5.93;;
4053;SDS011;2042;47.956;9.222;2023-09-18T05:09:36;9.13;;;4.87;;
4053;SDS011;2042;47.956;9.222;2023-09-18T05:12:03;9.00;;;5.00;;
4053;SDS011;2042;47.956;9.222;2023-09-18T05:14:30;6.93;;;4.80;;
4053;SDS011;2042;47.956;9.222;2023-09-18T05:16:56;10.03;;;4.80;;
4053;SDS011;2042;47.956;9.222;2023-09-18T05:19:21;7.60;;;5.50;;
4053;SDS011;2042;47.956;9.222;2023-09-18T05:21:47;10.20;;;5.27;;
4053;SDS011;2042;47.956;9.222;2023-09-18T05:24:13;7.33;;;4.63;;
4053;SDS011;2042;47.956;9.222;2023-09-18T05:26:38;6.47;;;5.57;;
4053;SDS011;2042;47.956;9.222;2023-09-18T05:29:04;6.30;;;4.43;;
4053;SDS011;2042;47.956;9.222;2023-09-18T05:31:29;5.93;;;5.10;;
4053;SDS011;2042;47.956;9.222;2023-09-18T05:33:55;8.63;;;5.10;;
4053;SDS011;2042;47.956;9.222;2023-09-18T05:36:21;7.90;;;4.43;;
4053;SDS011;2042;47.956;9.222;2023-09-18T05:38:46;9.63;;;4.83;;
4053;SDS011;2042;47.956;9.222;2023-09-18T05:41:12;5.73;;;4.70;;
4053;SDS011;2042;47.956;9.222;2023-09-18T05:43:38;11.23;;;4.97;;
4053;SDS011;2042;47.956;9.222;2023-09-18T05:46:03;8.73;;;4.87;;
4053;SDS011;2042;47.956;9.222;2023-09-18T05:48:29;6.43;;;4.63;;
4053;SDS011;2042;47.956;9.222;2023-09-18T05:50:54;7.33;;;5.07;;
4053;SDS011;2042;47.956;9.222;2023-09-18T05:53:21;8.33;;;4.57;;
4053;SDS011;2042;47.956;9.222;2023-09-18T05:55:47;8.93;;;5.10;;
4053;SDS011;2042;47.956;9.222;2023-09-18T05:58:13;7.43;;;4.90;;
4053;SDS011;2042;47.956;9.222;2023-09-18T06:00:39;11.10;;;5.70;;
4053;SDS011;2042;47.956;9.222;2023-09-18T06:03:05;18.77;;;5.40;;
4053;SDS011;2042;47.956;9.222;2023-09-18T06:05:34;6.37;;;5.07;;
4053;SDS011;2042;47.956;9.222;2023-09-18T06:08:00;16.73;;;5.70;;
4053;SDS011;2042;47.956;9.222;2023-09-18T06:10:26;15.83;;;6.23;;
4053;SDS011;2042;47.956;9.222;2023-09-18T06:12:51;6.53;;;4.23;;
4053;SDS011;2042;47.956;9.222;2023-09-18T06:15:18;12.57;;;5.83;;
4053;SDS011;2042;47.956;9.222;2023-09-18T06:17:44;10.60;;;5.03;;
4053;SDS011;2042;47.956;9.222;2023-09-18T06:20:10;7.13;;;4.50;;
4053;SDS011;2042;47.956;9.222;2023-09-18T06:22:41;9.30;;;4.43;;
4053;SDS011;2042;47.956;9.222;2023-09-18T06:25:07;7.70;;;4.80;;
4053;SDS011;2042;47.956;9.222;2023-09-18T06:27:35;8.60;;;4.93;;
4053;SDS011;2042;47.956;9.222;2023-09-18T06:30:02;9.17;;;5.13;;
4053;SDS011;2042;47.956;9.222;2023-09-18T06:32:28;9.00;;;4.10;;
4053;SDS011;2042;47.956;9.222;2023-09-18T06:34:54;13.73;;;4.47;;
4053;SDS011;2042;47.956;9.222;2023-09-18T06:37:19;9.43;;;4.03;;
4053;SDS011;2042;47.956;9.222;2023-09-18T06:39:45;14.30;;;5.17;;
4053;SDS011;2042;47.956;9.222;2023-09-18T06:42:11;15.70;;;6.70;;
4053;SDS011;2042;47.956;9.222;2023-09-18T06:44:37;11.47;;;3.97;;
4053;SDS011;2042;47.956;9.222;2023-09-18T06:47:03;11.50;;;3.37;;
4053;SDS011;2042;47.956;9.222;2023-09-18T06:49:29;6.40;;;3.77;;
4053;SDS011;2042;47.956;9.222;2023-09-18T06:51:55;8.13;;;4.27;;
4053;SDS011;2042;47.956;9.222;2023-09-18T06:54:21;10.30;;;3.60;;
4053;SDS011;2042;47.956;9.222;2023-09-18T06:56:47;7.97;;;4.10;;
4053;SDS011;2042;47.956;9.222;2023-09-18T06:59:13;10.37;;;4.13;;
4053;SDS011;2042;47.956;9.222;2023-09-18T07:01:39;4.97;;;3.73;;
4053;SDS011;2042;47.956;9.222;2023-09-18T07:04:06;10.13;;;3.83;;
4053;SDS011;2042;47.956;9.222;2023-09-18T07:06:32;5.83;;;3.40;;
4053;SDS011;2042;47.956;9.222;2023-09-18T07:08:58;8.57;;;3.70;;
4053;SDS011;2042;47.956;9.222;2023-09-18T07:11:24;8.30;;;3.70;;
4053;SDS011;2042;47.956;9.222;2023-09-18T07:13:50;6.30;;;3.30;;
4053;SDS011;2042;47.956;9.222;2023-09-18T07:16:16;8.97;;;3.30;;
4053;SDS011;2042;47.956;9.222;2023-09-18T07:18:42;7.03;;;2.80;;
4053;SDS011;2042;47.956;9.222;2023-09-18T07:21:08;5.47;;;2.40;;
4053;SDS011;2042;47.956;9.222;2023-09-18T07:23:34;11.63;;;5.33;;
4053;SDS011;2042;47.956;9.222;2023-09-18T07:26:02;7.20;;;3.40;;
4053;SDS011;2042;47.956;9.222;2023-09-18T07:28:28;4.90;;;3.80;;
4053;SDS011;2042;47.956;9.222;2023-09-18T07:30:54;5.60;;;3.30;;
4053;SDS011;2042;47.956;9.222;2023-09-18T07:33:19;5.93;;;3.30;;
4053;SDS011;2042;47.956;9.222;2023-09-18T07:35:48;9.33;;;3.73;;
4053;SDS011;2042;47.956;9.222;2023-09-18T07:38:16;5.20;;;2.97;;
4053;SDS011;2042;47.956;9.222;2023-09-18T07:40:44;8.63;;;4.20;;
4053;SDS011;2042;47.956;9.222;2023-09-18T07:43:11;5.77;;;3.17;;
4053;SDS011;2042;47.956;9.222;2023-09-18T07:45:40;8.50;;;3.43;;
4053;SDS011;2042;47.956;9.222;2023-09-18T07:48:08;4.90;;;2.97;;
4053;SDS011;2042;47.956;9.222;2023-09-18T07:50:34;7.50;;;3.60;;
4053;SDS011;2042;47.956;9.222;2023-09-18T07:53:00;3.47;;;2.70;;
4053;SDS011;2042;47.956;9.222;2023-09-18T07:55:27;5.33;;;2.50;;
4053;SDS011;2042;47.956;9.222;2023-09-18T07:57:53;2.27;;;2.00;;
4053;SDS011;2042;47.956;9.222;2023-09-18T08:00:18;4.87;;;2.67;;
4053;SDS011;2042;47.956;9.222;2023-09-18T08:02:47;2.87;;;1.93;;
4053;SDS011;2042;47.956;9.222;2023-09-18T08:05:15;3.93;;;2.00;;
4053;SDS011;2042;47.956;9.222;2023-09-18T08:07:41;4.50;;;2.33;;
4053;SDS011;2042;47.956;9.222;2023-09-18T08:10:07;6.03;;;2.47;;
4053;SDS011;2042;47.956;9.222;2023-09-18T08:12:33;4.47;;;2.27;;
4053;SDS011;2042;47.956;9.222;2023-09-18T08:14:59;4.27;;;3.87;;
4053;SDS011;2042;47.956;9.222;2023-09-18T08:17:25;3.20;;;2.07;;
4053;SDS011;2042;47.956;9.222;2023-09-18T08:19:52;3.83;;;2.40;;
4053;SDS011;2042;47.956;9.222;2023-09-18T08:22:18;3.97;;;2.00;;
4053;SDS011;2042;47.956;9.222;2023-09-18T08:24:46;3.63;;;1.80;;
4053;SDS011;2042;47.956;9.222;2023-09-18T08:27:17;2.50;;;1.70;;
4053;SDS011;2042;47.956;9.222;2023-09-18T08:29:44;7.30;;;2.00;;
4053;SDS011;2042;47.956;9.222;2023-09-18T08:32:10;2.23;;;1.33;;
4053;SDS011;2042;47.956;9.222;2023-09-18T08:34:36;5.57;;;1.60;;
4053;SDS011;2042;47.956;9.222;2023-09-18T08:37:02;2.40;;;1.40;;
4053;SDS011;2042;47.956;9.222;2023-09-18T08:39:28;2.80;;;1.07;;
4053;SDS011;2042;47.956;9.222;2023-09-18T08:41:55;4.20;;;1.33;;
4053;SDS011;2042;47.956;9.222;2023-09-18T08:44:24;3.63;;;1.60;;
4053;SDS011;2042;47.956;9.222;2023-09-18T08:46:53;4.27;;;1.80;;
4053;SDS011;2042;47.956;9.222;2023-09-18T08:49:20;6.40;;;1.33;;
4053;SDS011;2042;47.956;9.222;2023-09-18T08:51:51;5.10;;;2.00;;
4053;SDS011;2042;47.956;9.222;2023-09-18T08:54:18;6.53;;;2.30;;
4053;SDS011;2042;47.956;9.222;2023-09-18T08:56:44;3.77;;;2.23;;
4053;SDS011;2042;47.956;9.222;2023-09-18T08:59:10;1.80;;;0.90;;
4053;SDS011;2042;47.956;9.222;2023-09-18T09:01:38;2.00;;;1.50;;
4053;SDS011;2042;47.956;9.222;2023-09-18T09:04:05;2.67;;;1.57;;
4053;SDS011;2042;47.956;9.222;2023-09-18T09:06:30;4.30;;;1.17;;
4053;SDS011;2042;47.956;9.222;2023-09-18T09:08:56;2.93;;;1.40;;
4053;SDS011;2042;47.956;9.222;2023-09-18T09:11:23;3.60;;;1.10;;
4053;SDS011;2042;47.956;9.222;2023-09-18T09:13:57;4.40;;;1.07;;
4053;SDS011;2042;47.956;9.222;2023-09-18T09:16:46;3.03;;;1.93;;
4053;SDS011;2042;47.956;9.222;2023-09-18T09:19:33;3.83;;;1.17;;
4053;SDS011;2042;47.956;9.222;2023-09-18T09:22:04;1.20;;;1.07;;
4053;SDS011;2042;47.956;9.222;2023-09-18T09:25:03;2.93;;;1.20;;
4053;SDS011;2042;47.956;9.222;2023-09-18T09:27:21;8.30;;;1.27;;
4053;SDS011;2042;47.956;9.222;2023-09-18T09:29:59;1.67;;;0.90;;
4053;SDS011;2042;47.956;9.222;2023-09-18T09:32:27;2.20;;;1.20;;
4053;SDS011;2042;47.956;9.222;2023-09-18T09:34:57;2.53;;;1.20;;
4053;SDS011;2042;47.956;9.222;2023-09-18T09:37:29;1.43;;;1.33;;
4053;SDS011;2042;47.956;9.222;2023-09-18T09:39:56;3.53;;;1.07;;
4053;SDS011;2042;47.956;9.222;2023-09-18T09:42:21;2.20;;;1.30;;
4053;SDS011;2042;47.956;9.222;2023-09-18T09:45:10;8.03;;;1.30;;
4053;SDS011;2042;47.956;9.222;2023-09-18T09:47:37;3.00;;;1.60;;
4053;SDS011;2042;47.956;9.222;2023-09-18T09:50:13;2.07;;;1.43;;
4053;SDS011;2042;47.956;9.222;2023-09-18T09:52:45;6.70;;;1.37;;
4053;SDS011;2042;47.956;9.222;2023-09-18T09:55:32;1.57;;;1.47;;
4053;SDS011;2042;47.956;9.222;2023-09-18T09:58:02;4.77;;;1.97;;
4053;SDS011;2042;47.956;9.222;2023-09-18T10:00:33;4.60;;;1.90;;
4053;SDS011;2042;47.956;9.222;2023-09-18T10:03:08;3.13;;;1.60;;
4053;SDS011;2042;47.956;9.222;2023-09-18T10:05:40;1.93;;;1.33;;
4053;SDS011;2042;47.956;9.222;2023-09-18T10:08:13;3.77;;;1.40;;
4053;SDS011;2042;47.956;9.222;2023-09-18T10:10:52;1.87;;;1.20;;
4053;SDS011;2042;47.956;9.222;2023-09-18T10:13:32;5.17;;;1.37;;
4053;SDS011;2042;47.956;9.222;2023-09-18T10:16:04;1.30;;;1.10;;
4053;SDS011;2042;47.956;9.222;2023-09-18T10:26:50;4.03;;;1.43;;
4053;SDS011;2042;47.956;9.222;2023-09-18T10:29:20;3.03;;;1.43;;
4053;SDS011;2042;47.956;9.222;2023-09-18T10:31:48;4.00;;;1.20;;
4053;SDS011;2042;47.956;9.222;2023-09-18T10:34:17;2.10;;;1.60;;
4053;SDS011;2042;47.956;9.222;2023-09-18T10:36:43;3.53;;;1.47;;
4053;SDS011;2042;47.956;9.222;2023-09-18T10:39:20;1.93;;;1.50;;
4053;SDS011;2042;47.956;9.222;2023-09-18T10:41:51;1.90;;;1.63;;
4053;SDS011;2042;47.956;9.222;2023-09-18T10:44:17;2.10;;;1.60;;
4053;SDS011;2042;47.956;9.222;2023-09-18T10:46:47;1.60;;;1.27;;
4053;SDS011;2042;47.956;9.222;2023-09-18T10:49:17;2.10;;;1.00;;
4053;SDS011;2042;47.956;9.222;2023-09-18T10:51:44;3.10;;;1.60;;
4053;SDS011;2042;47.956;9.222;2023-09-18T10:54:15;1.20;;;1.10;;
4053;SDS011;2042;47.956;9.222;2023-09-18T10:56:46;3.80;;;1.63;;
4053;SDS011;2042;47.956;9.222;2023-09-18T10:59:13;5.30;;;1.87;;
4053;SDS011;2042;47.956;9.222;2023-09-18T11:01:40;2.70;;;1.57;;
4053;SDS011;2042;47.956;9.222;2023-09-18T11:04:07;4.30;;;1.77;;
4053;SDS011;2042;47.956;9.222;2023-09-18T11:09:23;2.03;;;1.77;;
4053;SDS011;2042;47.956;9.222;2023-09-18T11:11:53;3.50;;;1.70;;
4053;SDS011;2042;47.956;9.222;2023-09-18T11:14:45;3.33;;;1.73;;
4053;SDS011;2042;47.956;9.222;2023-09-18T11:17:29;3.47;;;1.77;;
4053;SDS011;2042;47.956;9.222;2023-09-18T11:23:17;1.90;;;1.70;;
4053;SDS011;2042;47.956;9.222;2023-09-18T11:25:35;3.70;;;1.60;;
4053;SDS011;2042;47.956;9.222;2023-09-18T11:28:07;2.60;;;1.40;;
4053;SDS011;2042;47.956;9.222;2023-09-18T11:30:55;4.47;;;1.70;;
4053;SDS011;2042;47.956;9.222;2023-09-18T11:36:08;1.70;;;1.30;;
4053;SDS011;2042;47.956;9.222;2023-09-18T11:38:55;2.00;;;1.67;;
4053;SDS011;2042;47.956;9.222;2023-09-18T11:41:23;2.43;;;2.23;;
4053;SDS011;2042;47.956;9.222;2023-09-18T11:43:50;2.70;;;1.60;;
4053;SDS011;2042;47.956;9.222;2023-09-18T11:46:18;2.07;;;1.60;;
4053;SDS011;2042;47.956;9.222;2023-09-18T11:48:46;1.80;;;1.50;;
4053;SDS011;2042;47.956;9.222;2023-09-18T11:51:15;1.57;;;1.47;;
4053;SDS011;2042;47.956;9.222;2023-09-18T11:53:47;2.73;;;1.40;;
4053;SDS011;2042;47.956;9.222;2023-09-18T11:56:14;2.97;;;1.90;;
4053;SDS011;2042;47.956;9.222;2023-09-18T11:58:48;3.40;;;2.03;;
4053;SDS011;2042;47.956;9.222;2023-09-18T12:01:15;2.30;;;1.57;;
4053;SDS011;2042;47.956;9.222;2023-09-18T12:03:42;3.57;;;1.90;;
4053;SDS011;2042;47.956;9.222;2023-09-18T12:06:08;2.40;;;1.63;;
4053;SDS011;2042;47.956;9.222;2023-09-18T12:08:38;1.90;;;1.80;;
4053;SDS011;2042;47.956;9.222;2023-09-18T12:11:04;6.10;;;1.97;;
4053;SDS011;2042;47.956;9.222;2023-09-18T12:13:31;2.77;;;1.83;;
4053;SDS011;2042;47.956;9.222;2023-09-18T12:15:58;3.07;;;2.20;;
4053;SDS011;2042;47.956;9.222;2023-09-18T12:18:27;2.97;;;2.50;;
4053;SDS011;2042;47.956;9.222;2023-09-18T12:20:54;1.93;;;1.83;;
4053;SDS011;2042;47.956;9.222;2023-09-18T12:23:24;4.07;;;2.30;;
4053;SDS011;2042;47.956;9.222;2023-09-18T12:25:50;2.10;;;1.70;;
4053;SDS011;2042;47.956;9.222;2023-09-18T12:28:24;2.60;;;1.93;;
4053;SDS011;2042;47.956;9.222;2023-09-18T12:30:53;4.80;;;1.97;;
4053;SDS011;2042;47.956;9.222;2023-09-18T12:33:21;2.73;;;1.80;;
4053;SDS011;2042;47.956;9.222;2023-09-18T12:35:50;4.03;;;2.30;;
4053;SDS011;2042;47.956;9.222;2023-09-18T12:38:17;2.90;;;1.80;;
4053;SDS011;2042;47.956;9.222;2023-09-18T12:40:51;2.63;;;2.43;;
4053;SDS011;2042;47.956;9.222;2023-09-18T12:43:18;3.03;;;2.13;;
4053;SDS011;2042;47.956;9.222;2023-09-18T12:45:47;2.40;;;1.83;;
4053;SDS011;2042;47.956;9.222;2023-09-18T12:48:14;4.00;;;3.20;;
4053;SDS011;2042;47.956;9.222;2023-09-18T12:50:40;4.07;;;2.50;;
4053;SDS011;2042;47.956;9.222;2023-09-18T12:53:13;2.80;;;2.60;;
4053;SDS011;2042;47.956;9.222;2023-09-18T12:55:40;3.00;;;1.60;;
4053;SDS011;2042;47.956;9.222;2023-09-18T12:58:10;2.30;;;1.83;;
4053;SDS011;2042;47.956;9.222;2023-09-18T13:00:36;3.30;;;1.93;;
4053;SDS011;2042;47.956;9.222;2023-09-18T13:03:02;2.20;;;1.80;;
4053;SDS011;2042;47.956;9.222;2023-09-18T13:05:29;2.07;;;1.70;;
4053;SDS011;2042;47.956;9.222;2023-09-18T13:08:01;2.37;;;1.70;;
4053;SDS011;2042;47.956;9.222;2023-09-18T13:10:29;2.67;;;1.97;;
4053;SDS011;2042;47.956;9.222;2023-09-18T13:13:05;3.43;;;1.93;;
4053;SDS011;2042;47.956;9.222;2023-09-18T13:15:31;2.20;;;1.67;;
4053;SDS011;2042;47.956;9.222;2023-09-18T13:17:58;1.77;;;1.43;;
4053;SDS011;2042;47.956;9.222;2023-09-18T13:20:26;1.60;;;1.37;;
4053;SDS011;2042;47.956;9.222;2023-09-18T13:22:57;2.63;;;1.47;;
4053;SDS011;2042;47.956;9.222;2023-09-18T13:25:30;2.40;;;1.57;;
4053;SDS011;2042;47.956;9.222;2023-09-18T13:28:09;3.20;;;1.47;;
4053;SDS011;2042;47.956;9.222;2023-09-18T13:30:36;2.10;;;1.27;;
4053;SDS011;2042;47.956;9.222;2023-09-18T13:33:07;2.13;;;1.20;;
4053;SDS011;2042;47.956;9.222;2023-09-18T13:35:37;1.90;;;1.50;;
4053;SDS011;2042;47.956;9.222;2023-09-18T13:38:07;1.10;;;1.00;;
4053;SDS011;2042;47.956;9.222;2023-09-18T13:40:37;1.70;;;1.30;;
4053;SDS011;2042;47.956;9.222;2023-09-18T13:43:04;6.83;;;1.80;;
4053;SDS011;2042;47.956;9.222;2023-09-18T13:45:31;3.63;;;1.60;;
4053;SDS011;2042;47.956;9.222;2023-09-18T13:47:57;3.20;;;1.47;;
4053;SDS011;2042;47.956;9.222;2023-09-18T13:50:24;1.87;;;1.50;;
4053;SDS011;2042;47.956;9.222;2023-09-18T13:52:49;1.40;;;1.30;;
4053;SDS011;2042;47.956;9.222;2023-09-18T13:55:16;1.97;;;1.33;;
4053;SDS011;2042;47.956;9.222;2023-09-18T13:58:07;2.53;;;1.50;;
4053;SDS011;2042;47.956;9.222;2023-09-18T14:00:32;2.30;;;1.57;;
4053;SDS011;2042;47.956;9.222;2023-09-18T14:02:58;1.50;;;1.40;;
4053;SDS011;2042;47.956;9.222;2023-09-18T14:05:24;4.60;;;2.13;;
4053;SDS011;2042;47.956;9.222;2023-09-18T14:07:51;2.33;;;1.77;;
4053;SDS011;2042;47.956;9.222;2023-09-18T14:10:22;1.27;;;1.17;;
4053;SDS011;2042;47.956;9.222;2023-09-18T14:12:49;3.70;;;1.30;;
4053;SDS011;2042;47.956;9.222;2023-09-18T14:15:17;1.20;;;1.10;;
4053;SDS011;2042;47.956;9.222;2023-09-18T14:17:43;1.80;;;1.40;;
4053;SDS011;2042;47.956;9.222;2023-09-18T14:20:09;2.50;;;1.13;;
4053;SDS011;2042;47.956;9.222;2023-09-18T14:22:35;3.93;;;1.13;;
4053;SDS011;2042;47.956;9.222;2023-09-18T14:25:01;1.63;;;1.10;;
4053;SDS011;2042;47.956;9.222;2023-09-18T14:27:30;1.10;;;0.90;;
4053;SDS011;2042;47.956;9.222;2023-09-18T14:29:56;1.20;;;1.10;;
4053;SDS011;2042;47.956;9.222;2023-09-18T14:32:22;2.27;;;1.10;;
4053;SDS011;2042;47.956;9.222;2023-09-18T14:34:48;1.00;;;0.90;;
4053;SDS011;2042;47.956;9.222;2023-09-18T14:37:13;2.20;;;1.10;;
4053;SDS011;2042;47.956;9.222;2023-09-18T14:39:39;2.47;;;1.23;;
4053;SDS011;2042;47.956;9.222;2023-09-18T14:42:05;1.23;;;1.10;;
4053;SDS011;2042;47.956;9.222;2023-09-18T14:44:31;3.00;;;1.10;;
4053;SDS011;2042;47.956;9.222;2023-09-18T14:46:58;1.00;;;0.90;;
4053;SDS011;2042;47.956;9.222;2023-09-18T14:49:24;1.20;;;1.00;;
4053;SDS011;2042;47.956;9.222;2023-09-18T14:51:52;5.70;;;1.07;;
4053;SDS011;2042;47.956;9.222;2023-09-18T14:54:19;1.30;;;1.20;;
4053;SDS011;2042;47.956;9.222;2023-09-18T14:56:44;1.20;;;1.03;;
4053;SDS011;2042;47.956;9.222;2023-09-18T14:59:12;2.30;;;1.23;;
4053;SDS011;2042;47.956;9.222;2023-09-18T15:01:37;1.17;;;1.07;;
4053;SDS011;2042;47.956;9.222;2023-09-18T15:04:03;2.00;;;0.83;;
4053;SDS011;2042;47.956;9.222;2023-09-18T15:06:29;1.40;;;1.10;;
4053;SDS011;2042;47.956;9.222;2023-09-18T15:08:55;2.70;;;0.97;;
4053;SDS011;2042;47.956;9.222;2023-09-18T15:11:20;1.50;;;1.10;;
4053;SDS011;2042;47.956;9.222;2023-09-18T15:13:47;2.60;;;1.20;;
4053;SDS011;2042;47.956;9.222;2023-09-18T15:16:13;3.20;;;1.00;;
4053;SDS011;2042;47.956;9.222;2023-09-18T15:18:39;1.10;;;1.00;;
4053;SDS011;2042;47.956;9.222;2023-09-18T15:21:04;2.03;;;1.80;;
4053;SDS011;2042;47.956;9.222;2023-09-18T15:23:30;1.53;;;1.20;;
4053;SDS011;2042;47.956;9.222;2023-09-18T15:25:56;1.20;;;1.10;;
4053;SDS011;2042;47.956;9.222;2023-09-18T15:28:22;2.13;;;1.27;;
4053;SDS011;2042;47.956;9.222;2023-09-18T15:30:50;1.73;;;0.90;;
4053;SDS011;2042;47.956;9.222;2023-09-18T15:33:18;2.60;;;1.20;;
4053;SDS011;2042;47.956;9.222;2023-09-18T15:35:50;3.30;;;1.00;;
4053;SDS011;2042;47.956;9.222;2023-09-18T15:38:17;2.90;;;1.23;;